Time;durP1;ratioP1;P1;durP2;ratioP2;P2;SDS_P1;SDS_P2;PMS_P1;PMS_P2;Temp;Humidity;BMP_temperature;BMP_pressure;BME280_temperature;BME280_humidity;BME280_pressure;Samples;Min_cycle;Max_cycle;Signal;HPM_P1;HPM_P2
2022/08/23 00:01:42;;;;;;;17.60;4.03;;;18.40;1.00;;;19.40;83.56;99356.66;5042682;27;119229;-71
2022/08/23 00:04:16;;;;;;;16.83;4.38;;;18.40;1.00;;;19.38;83.40;99353.50;5040033;27;130368;-71
2022/08/23 00:06:46;;;;;;;20.13;5.28;;;18.30;1.00;;;19.33;83.38;99356.56;5039803;27;129572;-70
2022/08/23 00:09:16;;;;;;;23.23;4.63;;;18.30;1.00;;;19.24;83.93;99360.75;5043382;27;119059;-71
2022/08/23 00:11:49;;;;;;;21.00;4.78;;;18.20;1.00;;;19.19;83.93;99367.38;5040254;27;119982;-71
2022/08/23 00:14:21;;;;;;;22.65;4.80;;;18.10;1.00;;;19.18;84.14;99372.09;5038493;27;130440;-71
2022/08/23 00:16:50;;;;;;;21.27;4.57;;;18.10;5.70;;;19.12;85.16;99370.03;5038652;27;129434;-71
2022/08/23 00:19:21;;;;;;;19.33;4.95;;;18.10;13.10;;;19.06;85.82;99374.25;5040034;27;119401;-72
2022/08/23 00:21:53;;;;;;;16.33;4.00;;;18.10;13.20;;;19.00;86.31;99374.59;5042078;27;119706;-71
2022/08/23 00:24:23;;;;;;;16.88;4.72;;;18.10;14.30;;;18.92;86.85;99367.41;5041446;27;129383;-71
2022/08/23 00:26:59;;;;;;;16.80;4.32;;;18.00;18.60;;;18.75;88.03;99370.66;5039801;27;129439;-71
2022/08/23 00:29:32;;;;;;;19.80;4.63;;;17.90;23.00;;;18.62;88.87;99368.13;5042038;27;119783;-71
2022/08/23 00:32:02;;;;;;;22.25;4.85;;;17.80;28.90;;;18.53;89.63;99370.34;5024880;27;119410;-71
2022/08/23 00:34:31;;;;;;;26.40;5.07;;;17.80;35.30;;;18.44;90.22;99378.03;5041361;27;129306;-71
2022/08/23 00:36:59;;;;;;;14.98;4.30;;;17.70;41.60;;;18.40;90.34;99374.44;5038129;27;129879;-71
2022/08/23 00:39:29;;;;;;;22.48;5.63;;;17.60;44.10;;;18.38;90.31;99368.50;5040621;27;121364;-71
2022/08/23 00:47:38;;;;;;;24.60;4.65;;;17.60;49.50;;;18.31;90.96;99366.44;5041109;27;122025;-71
2022/08/23 00:47:41;;;;;;;20.23;4.78;;;17.50;56.50;;;18.22;91.68;99366.69;5042945;27;129568;-73
2022/08/23 00:50:23;;;;;;;26.05;4.53;;;17.40;65.40;;;18.17;91.84;99372.50;5043509;27;119601;-71
2022/08/23 00:53:02;;;;;;;18.35;4.63;;;17.40;69.20;;;18.13;91.88;99368.88;5045064;27;119406;-72
2022/08/23 00:55:31;;;;;;;15.93;4.20;;;17.30;70.10;;;18.09;92.02;99366.06;5041608;27;130131;-72
2022/08/23 00:58:02;;;;;;;19.10;4.80;;;17.30;69.50;;;18.10;92.03;99369.59;5045564;27;129471;-71
2022/08/23 01:00:32;;;;;;;15.95;4.40;;;17.30;71.40;;;18.12;91.42;99381.00;5043254;27;119230;-71
2022/08/23 01:03:05;;;;;;;22.45;4.95;;;17.20;72.40;;;18.10;92.08;99380.59;5043164;27;119429;-71
2022/08/23 01:05:51;;;;;;;19.42;5.03;;;17.20;83.60;;;18.04;92.30;99388.31;5026724;27;129901;-72
2022/08/23 01:08:22;;;;;;;22.20;4.72;;;17.20;80.40;;;18.02;92.26;99382.41;5041421;27;129625;-71
2022/08/23 01:10:57;;;;;;;21.98;4.80;;;17.20;82.30;;;17.95;92.55;99391.31;5028036;27;119322;-71
2022/08/23 01:13:36;;;;;;;19.40;4.80;;;17.20;74.20;;;17.92;92.41;99383.81;5027986;27;118721;-69
2022/08/23 01:16:10;;;;;;;16.98;4.85;;;17.40;59.10;;;17.94;92.34;99388.94;5042514;27;129851;-70
2022/08/23 01:18:42;;;;;;;22.92;4.85;;;17.30;62.00;;;17.91;92.58;99384.97;5042601;27;130470;-72
2022/08/23 01:21:20;;;;;;;17.98;4.95;;;17.30;68.10;;;17.87;93.05;99384.09;5041486;27;119528;-71
2022/08/23 01:23:53;;;;;;;15.30;4.45;;;17.30;71.30;;;17.81;93.66;99382.78;5045254;27;119120;-70
2022/08/23 01:26:24;;;;;;;18.92;4.75;;;17.20;78.30;;;17.78;93.93;99381.56;5041284;27;131449;-70
2022/08/23 01:28:54;;;;;;;15.13;4.82;;;17.20;84.80;;;17.78;94.20;99391.75;5044682;27;129063;-71
2022/08/23 01:31:25;;;;;;;20.73;4.85;;;17.10;89.70;;;17.75;94.60;99392.47;5026663;27;120605;-70
2022/08/23 01:33:59;;;;;;;23.92;5.35;;;17.10;92.70;;;17.71;95.23;99399.84;5027602;27;120984;-75
2022/08/23 01:36:29;;;;;;;15.80;4.78;;;17.10;92.70;;;17.59;95.99;99401.56;5042486;27;129882;-71
2022/08/23 01:38:59;;;;;;;24.58;4.90;;;17.00;94.20;;;17.58;96.18;99404.69;5044325;27;129133;-71
2022/08/23 01:41:28;;;;;;;20.65;5.47;;;17.00;95.20;;;17.58;96.45;99394.50;5042585;27;120085;-70
2022/08/23 01:43:57;;;;;;;16.92;5.60;;;17.00;98.40;;;17.57;96.28;99398.38;5041463;27;119458;-72
2022/08/23 01:46:28;;;;;;;15.60;4.72;;;16.90;99.90;;;17.57;96.15;99409.34;5027284;27;128772;-70
2022/08/23 01:48:57;;;;;;;17.45;4.72;;;16.80;99.90;;;17.51;96.92;99399.03;5040796;27;129318;-71
2022/08/23 01:51:30;;;;;;;23.48;5.07;;;16.70;99.90;;;17.45;97.11;99393.03;5041613;27;119936;-72
2022/08/23 01:54:00;;;;;;;14.13;5.32;;;16.70;99.90;;;17.41;97.54;99394.94;5044176;27;119170;-72
2022/08/23 01:56:31;;;;;;;17.83;5.28;;;16.60;99.90;;;17.39;97.81;99391.72;5040897;27;130211;-71
2022/08/23 01:59:00;;;;;;;16.83;5.10;;;16.50;99.90;;;17.37;97.60;99394.84;5043860;27;128536;-73
2022/08/23 02:01:34;;;;;;;25.70;5.38;;;16.50;99.90;;;17.35;98.19;99391.66;5027349;27;119146;-70
2022/08/23 02:04:05;;;;;;;18.83;4.65;;;16.40;99.90;;;17.25;98.70;99397.72;5040904;27;119712;-72
2022/08/23 02:06:35;;;;;;;19.92;5.38;;;16.40;99.90;;;17.17;99.05;99390.47;5026933;27;129261;-71
2022/08/23 02:09:07;;;;;;;18.92;4.63;;;16.30;99.90;;;17.09;99.28;99394.22;5040719;27;129386;-71
2022/08/23 02:11:42;;;;;;;16.23;5.53;;;16.20;99.90;;;16.91;100.00;99393.81;5041076;27;120851;-71
2022/08/23 02:14:17;;;;;;;21.35;6.15;;;16.10;99.90;;;16.76;100.00;99396.19;5042083;27;119252;-69
2022/08/23 02:16:57;;;;;;;16.23;5.47;;;16.00;99.90;;;16.69;100.00;99396.81;5043996;27;128878;-71
2022/08/23 02:19:26;;;;;;;19.85;5.63;;;15.90;99.90;;;16.63;100.00;99389.25;5027130;27;130118;-69
2022/08/23 02:21:55;;;;;;;16.58;5.25;;;15.80;99.90;;;16.58;100.00;99389.50;5039399;27;121918;-70
2022/08/23 02:24:26;;;;;;;22.90;5.72;;;15.80;99.90;;;16.55;100.00;99388.28;5040606;27;121885;-72
2022/08/23 02:27:00;;;;;;;14.48;4.75;;;15.80;99.90;;;16.48;100.00;99391.63;5040031;27;129926;-71
2022/08/23 02:29:29;;;;;;;13.85;4.95;;;15.70;99.90;;;16.45;100.00;99394.28;5040422;27;129590;-71
2022/08/23 02:31:58;;;;;;;14.98;5.10;;;15.60;99.90;;;16.43;100.00;99396.56;5040418;27;119214;-72
2022/08/23 02:34:29;;;;;;;16.40;5.25;;;15.60;99.90;;;16.44;100.00;99398.97;5043905;27;119902;-71
2022/08/23 02:36:58;;;;;;;18.90;5.65;;;15.60;99.90;;;16.47;100.00;99392.78;5057139;27;130276;-71
2022/08/23 02:39:29;;;;;;;17.27;6.53;;;15.50;99.90;;;16.48;100.00;99397.09;5040535;27;130518;-71
2022/08/23 02:41:58;;;;;;;17.00;5.53;;;15.50;99.90;;;16.40;100.00;99395.31;5043697;27;118699;-72
2022/08/23 02:44:27;;;;;;;14.70;5.55;;;15.50;99.90;;;16.31;100.00;99401.00;5041530;27;119502;-70
2022/08/23 02:46:56;;;;;;;23.38;5.78;;;15.50;99.90;;;16.26;100.00;99411.41;5038280;27;129690;-71
2022/08/23 02:49:24;;;;;;;17.05;5.25;;;15.50;99.90;;;16.25;100.00;99418.03;5040169;27;129378;-71
2022/08/23 02:51:54;;;;;;;20.20;5.15;;;15.40;99.90;;;16.21;100.00;99411.66;5026495;27;119589;-69
2022/08/23 02:54:23;;;;;;;18.95;5.00;;;15.50;99.90;;;16.16;100.00;99416.25;5043350;27;119513;-71
2022/08/23 02:56:53;;;;;;;14.85;5.88;;;15.40;99.90;;;16.03;100.00;99408.44;5040992;27;129442;-70
2022/08/23 02:59:22;;;;;;;17.50;6.13;;;15.40;99.90;;;16.03;100.00;99411.97;5039904;27;130117;-70
2022/08/23 03:01:51;;;;;;;18.98;5.97;;;15.40;99.90;;;16.09;100.00;99418.78;5040059;27;120094;-72
2022/08/23 03:04:26;;;;;;;16.02;5.13;;;15.40;99.90;;;16.08;100.00;99408.19;5056517;27;119436;-71
2022/08/23 03:06:55;;;;;;;17.35;4.88;;;15.30;99.90;;;16.09;100.00;99409.78;5042847;27;129107;-73
2022/08/23 03:09:24;;;;;;;17.17;5.00;;;15.40;99.90;;;16.09;100.00;99412.53;5039627;27;129415;-72
2022/08/23 03:11:54;;;;;;;15.95;4.80;;;15.60;99.90;;;16.18;100.00;99413.94;5041181;27;121657;-72
2022/08/23 03:14:24;;;;;;;22.75;5.97;;;15.70;99.90;;;16.26;100.00;99417.66;5039737;27;122809;-71
2022/08/23 03:16:52;;;;;;;18.85;5.45;;;15.80;99.90;;;16.32;100.00;99423.69;5042489;27;129511;-73
2022/08/23 03:19:21;;;;;;;21.95;7.20;;;15.80;99.90;;;16.35;100.00;99418.28;5040519;27;129505;-73
2022/08/23 03:21:50;;;;;;;21.08;5.35;;;15.90;99.90;;;16.38;100.00;99422.28;5043311;27;119289;-73
2022/08/23 03:24:19;;;;;;;16.70;5.43;;;15.80;99.90;;;16.37;100.00;99430.84;5026073;27;119628;-73
2022/08/23 03:26:48;;;;;;;13.70;5.07;;;15.80;99.90;;;16.40;100.00;99432.88;5042199;27;130307;-73
2022/08/23 03:29:19;;;;;;;17.90;5.28;;;15.80;99.90;;;16.47;100.00;99425.66;5042942;27;128554;-72
2022/08/23 03:32:07;;;;;;;17.40;5.10;;;15.90;99.90;;;16.50;100.00;99430.41;5042962;27;119369;-72
2022/08/23 03:34:38;;;;;;;15.93;5.20;;;16.00;99.90;;;16.57;100.00;99431.75;5039459;27;119746;-71
2022/08/23 03:37:09;;;;;;;22.05;6.18;;;16.10;99.90;;;16.64;100.00;99442.88;5041016;27;130020;-74
2022/08/23 03:39:38;;;;;;;19.23;5.30;;;16.20;99.90;;;16.65;100.00;99439.78;5025364;27;128502;-72
2022/08/23 03:42:07;;;;;;;21.08;5.30;;;16.20;99.90;;;16.75;100.00;99446.69;5040774;27;119622;-73
2022/08/23 03:44:37;;;;;;;18.60;5.30;;;16.20;99.90;;;16.77;100.00;99449.84;5025559;27;118520;-73
2022/08/23 03:47:06;;;;;;;22.00;6.15;;;16.30;99.90;;;16.79;100.00;99444.81;5042135;27;129355;-73
2022/08/23 03:52:20;;;;;;;23.00;6.10;;;16.30;99.90;;;16.94;100.00;99445.19;5042720;27;119628;-72
2022/08/23 03:54:49;;;;;;;22.02;4.72;;;16.30;99.90;;;17.00;100.00;99451.97;5039601;27;119433;-71
2022/08/23 03:57:19;;;;;;;15.25;5.28;;;16.30;99.90;;;17.07;100.00;99452.16;5038656;27;129947;-70
2022/08/23 03:59:49;;;;;;;19.67;5.82;;;16.40;99.90;;;16.99;100.00;99451.19;5038618;27;130112;-71
2022/08/23 04:02:18;;;;;;;18.20;5.00;;;16.30;99.90;;;17.05;100.00;99448.97;5037726;27;122222;-71
2022/08/23 04:04:48;;;;;;;15.88;4.47;;;16.30;99.90;;;17.07;100.00;99446.66;5038991;27;121910;-71
2022/08/23 04:07:23;;;;;;;16.13;5.00;;;16.40;99.90;;;17.13;100.00;99450.72;5058777;27;129385;-71
2022/08/23 04:09:56;;;;;;;20.77;5.45;;;16.40;99.90;;;17.16;100.00;99461.00;5024829;27;128826;-70
2022/08/23 04:12:28;;;;;;;22.02;6.25;;;16.40;99.90;;;17.21;100.00;99457.97;5039072;27;119700;-70
2022/08/23 04:14:59;;;;;;;17.58;6.13;;;16.50;99.90;;;17.33;100.00;99459.00;5024394;27;118757;-71
2022/08/23 04:17:27;;;;;;;23.02;5.45;;;16.60;99.90;;;17.35;100.00;99448.47;5038376;27;131578;-71
2022/08/23 04:19:58;;;;;;;17.58;5.78;;;16.60;99.90;;;17.34;100.00;99452.34;5042203;27;128765;-72
2022/08/23 04:22:27;;;;;;;15.30;5.38;;;16.60;99.90;;;17.54;99.60;99453.97;5038831;27;119820;-71
2022/08/23 04:24:55;;;;;;;19.15;5.05;;;16.70;99.90;;;17.63;98.90;99451.03;5038690;27;119434;-72
2022/08/23 04:27:24;;;;;;;21.10;6.00;;;16.80;99.90;;;17.79;98.01;99459.19;5040131;27;129789;-71
2022/08/23 04:29:53;;;;;;;18.92;5.53;;;16.90;99.90;;;17.91;96.56;99470.06;5038273;27;129392;-73
2022/08/23 04:32:24;;;;;;;15.88;5.15;;;16.90;99.90;;;18.01;96.18;99470.63;5042447;27;119110;-70
2022/08/23 04:34:53;;;;;;;17.45;6.07;;;17.00;99.90;;;18.17;94.92;99474.09;5038865;27;119542;-70
2022/08/23 04:37:22;;;;;;;17.58;4.68;;;17.10;99.90;;;18.20;94.62;99473.38;5024663;27;129818;-71
2022/08/23 04:42:43;;;;;;;20.13;6.43;;;17.10;99.90;;;18.14;95.54;99464.63;5038684;27;119761;-71
2022/08/23 04:45:13;;;;;;;14.95;4.95;;;17.20;99.90;;;18.32;95.04;99469.66;5042036;27;118768;-70
2022/08/23 04:47:48;;;;;;;20.42;5.40;;;17.30;99.90;;;18.39;94.23;99472.53;5024437;27;128853;-71
2022/08/23 04:50:17;;;;;;;20.48;5.25;;;17.40;99.90;;;18.55;93.53;99466.94;5040905;27;129050;-70
2022/08/23 04:53:19;;;;;;;17.80;5.40;;;17.50;99.90;;;18.71;92.47;99460.53;5037395;27;123003;-70
2022/08/23 04:56:23;;;;;;;16.98;4.90;;;17.60;99.90;;;18.92;91.35;99469.16;5042605;27;121891;-70
2022/08/23 04:58:54;;;;;;;17.58;4.70;;;17.80;99.90;;;19.07;90.12;99474.88;5038051;27;130336;-71
2022/08/23 05:01:24;;;;;;;18.65;5.30;;;17.90;93.10;;;19.19;88.41;99478.19;5024755;27;128560;-72
2022/08/23 05:03:55;;;;;;;16.63;4.90;;;18.10;78.50;;;19.32;87.98;99467.78;5038406;27;119833;-71
2022/08/23 05:06:27;;;;;;;17.10;4.93;;;18.30;68.50;;;19.57;85.77;99470.88;5041279;27;118952;-70
2022/08/23 05:08:56;;;;;;;16.85;5.28;;;18.40;38.60;;;19.78;84.36;99474.31;5037941;27;129912;-71
2022/08/23 05:11:25;;;;;;;13.05;4.55;;;18.60;33.10;;;19.86;82.26;99462.22;5038471;27;129308;-71
2022/08/23 05:13:55;;;;;;;14.77;4.43;;;18.80;16.30;;;19.88;81.73;99462.63;5038207;27;119633;-69
2022/08/23 05:16:25;;;;;;;18.83;4.95;;;18.80;7.00;;;20.00;80.47;99472.63;5038157;27;119478;-70
2022/08/23 05:19:01;;;;;;;18.10;5.27;;;19.00;1.00;;;20.33;79.53;99471.78;5023042;27;129286;-72
2022/08/23 05:21:32;;;;;;;13.40;4.03;;;19.20;1.00;;;20.33;77.93;99477.28;5041462;27;129507;-70
2022/08/23 05:24:01;;;;;;;16.02;4.00;;;19.20;1.00;;;20.37;77.53;99478.13;5039639;27;119889;-70
2022/08/23 05:26:30;;;;;;;16.33;4.63;;;19.20;1.00;;;20.54;77.47;99473.19;5039731;27;119574;-72
2022/08/23 05:28:58;;;;;;;15.45;4.72;;;19.30;1.00;;;20.55;76.43;99477.50;5027629;27;129466;-70
2022/08/23 05:31:33;;;;;;;14.30;4.57;;;19.40;1.00;;;20.67;75.63;99480.00;5041302;27;129500;-70
2022/08/23 05:34:06;;;;;;;24.73;5.50;;;19.50;1.00;;;20.71;74.55;99485.56;5027801;27;118972;-71
2022/08/23 05:36:41;;;;;;;15.23;4.63;;;19.50;1.00;;;20.68;74.75;99481.59;5042002;27;119516;-70
2022/08/23 05:39:10;;;;;;;19.77;5.40;;;19.60;1.00;;;20.65;74.70;99482.38;5044441;27;129700;-70
2022/08/23 05:41:41;;;;;;;14.05;4.15;;;19.60;1.00;;;20.78;74.28;99491.91;5041112;27;130174;-69
2022/08/23 05:44:11;;;;;;;18.63;4.20;;;19.70;1.00;;;21.06;73.68;99482.28;5041253;27;121914;-71
2022/08/23 05:46:41;;;;;;;12.20;4.40;;;19.80;1.00;;;21.15;72.62;99487.50;5044205;27;124216;-70
2022/08/23 05:49:20;;;;;;;22.05;5.03;;;19.90;1.00;;;21.05;73.18;99489.00;5040942;27;130291;-71
2022/08/23 05:51:49;;;;;;;18.00;4.93;;;19.80;1.00;;;21.33;72.05;99482.91;5041021;27;129388;-70
2022/08/23 05:54:18;;;;;;;19.77;4.88;;;20.10;1.00;;;21.63;71.66;99481.91;5041324;27;119725;-71
2022/08/23 05:56:52;;;;;;;14.82;4.30;;;20.30;1.00;;;21.96;69.94;99479.28;5044289;27;121587;-69
2022/08/23 05:59:21;;;;;;;15.93;4.60;;;20.50;1.00;;;22.01;68.68;99487.19;5041905;27;129914;-71
2022/08/23 06:01:50;;;;;;;13.95;4.60;;;20.50;1.00;;;22.07;69.10;99485.63;5027467;27;128994;-73
2022/08/23 06:04:22;;;;;;;13.45;4.40;;;20.60;1.00;;;22.39;67.99;99490.47;5027305;27;118796;-69
2022/08/23 06:06:51;;;;;;;16.88;4.57;;;20.80;1.00;;;22.50;66.81;99485.78;5041035;27;119382;-71
2022/08/23 06:09:19;;;;;;;13.43;4.78;;;20.90;1.00;;;22.31;67.20;99488.88;5039363;27;130750;-71
2022/08/23 06:11:49;;;;;;;20.00;4.90;;;20.80;1.00;;;22.34;67.07;99493.63;5041828;27;129933;-72
2022/08/23 06:14:19;;;;;;;14.93;5.57;;;20.80;1.00;;;22.50;66.95;99496.03;5043841;27;119474;-71
2022/08/23 06:16:51;;;;;;;15.38;5.05;;;20.90;1.00;;;22.76;65.54;99498.41;5043959;27;119466;-71
2022/08/23 06:19:25;;;;;;;11.57;4.30;;;21.10;1.00;;;22.72;64.72;99496.84;5043882;27;129694;-71
2022/08/23 06:22:21;;;;;;;15.40;4.20;;;21.20;1.00;;;22.81;64.44;99500.00;5040634;27;130133;-70
2022/08/23 06:24:50;;;;;;;13.07;3.72;;;21.20;1.00;;;22.97;64.51;99494.88;5043972;27;119265;-69
2022/08/23 06:27:18;;;;;;;17.77;4.15;;;21.30;1.00;;;22.87;64.47;99487.34;5041245;27;120028;-69
2022/08/23 06:29:48;;;;;;;14.35;4.28;;;21.30;1.00;;;22.93;63.47;99496.84;5039901;27;129704;-69
2022/08/23 06:32:40;;;;;;;12.40;4.10;;;21.30;1.00;;;23.09;63.24;99493.72;5014755;27;130533;-69
2022/08/23 06:35:28;;;;;;;19.25;5.00;;;21.50;1.00;;;23.25;62.49;99496.06;5042561;27;120774;-69
2022/08/23 06:38:11;;;;;;;17.42;4.55;;;21.60;1.00;;;23.52;62.04;99490.09;5039272;27;121912;-70
2022/08/23 06:40:49;;;;;;;12.88;4.90;;;21.90;1.00;;;23.44;62.73;99491.31;5041449;27;130439;-71
2022/08/23 06:43:32;;;;;;;16.23;3.90;;;21.90;1.00;;;23.56;61.06;99493.66;5043210;27;128329;-71
2022/08/23 06:46:29;;;;;;;14.50;4.20;;;22.10;1.00;;;23.80;61.72;99499.50;5042182;27;120161;-70
2022/08/23 06:48:59;;;;;;;12.75;4.32;;;22.30;1.00;;;24.13;59.89;99502.94;5039905;27;119418;-69
2022/08/23 06:51:31;;;;;;;10.70;4.22;;;22.50;1.00;;;24.26;58.27;99506.03;5039931;27;129998;-68
2022/08/23 06:54:22;;;;;;;15.38;4.38;;;22.50;1.00;;;24.00;59.12;99510.94;5043716;27;129078;-69
2022/08/23 06:57:31;;;;;;;13.25;4.53;;;22.40;1.00;;;24.18;59.06;99513.63;5001620;28;120688;-71
2022/08/23 07:00:19;;;;;;;11.98;4.05;;;22.50;1.00;;;24.08;59.11;99509.72;4998626;28;119430;-70
2022/08/23 07:03:08;;;;;;;15.93;4.68;;;22.50;1.00;;;24.19;59.02;99501.34;5032208;27;130240;-70
2022/08/23 07:06:00;;;;;;;13.98;5.13;;;22.60;1.00;;;24.32;57.90;99502.44;5014437;27;129494;-71
2022/08/23 07:08:33;;;;;;;9.80;4.65;;;22.80;1.00;;;24.41;57.80;99502.78;5040688;27;121229;-70
2022/08/23 07:11:02;;;;;;;13.45;4.40;;;22.90;1.00;;;24.18;58.27;99505.28;5043378;27;118136;-71
2022/08/23 07:13:31;;;;;;;11.48;4.07;;;22.70;1.00;;;23.98;58.86;99497.47;5040913;27;129983;-71
2022/08/23 07:16:02;;;;;;;13.75;4.25;;;22.70;1.00;;;24.03;57.87;99499.81;5039464;27;130165;-69
2022/08/23 07:18:33;;;;;;;11.02;5.03;;;22.80;1.00;;;24.31;58.80;99495.34;5043285;27;119090;-69
2022/08/23 07:21:04;;;;;;;12.63;5.07;;;22.90;1.00;;;24.92;56.77;99499.69;5040416;27;119729;-70
2022/08/23 07:23:35;;;;;;;9.23;4.18;;;23.30;1.00;;;25.06;55.72;99496.78;5042670;27;130199;-71
2022/08/23 07:26:10;;;;;;;16.67;4.70;;;23.40;1.00;;;25.19;55.35;99496.28;5039889;27;130183;-69
2022/08/23 07:28:40;;;;;;;12.00;5.10;;;23.50;1.00;;;25.36;54.16;99492.56;5041547;27;121740;-70
2022/08/23 07:31:12;;;;;;;12.32;5.47;;;23.70;1.00;;;25.39;54.01;99485.41;5039393;27;121934;-70
2022/08/23 07:33:42;;;;;;;15.48;5.25;;;23.50;1.00;;;25.74;54.59;99484.22;5042691;27;129596;-71
2022/08/23 07:36:18;;;;;;;10.90;4.50;;;23.90;1.00;;;25.97;53.05;99491.06;5039310;27;130187;-70
2022/08/23 07:38:49;;;;;;;12.98;5.20;;;24.20;1.00;;;26.02;52.03;99498.97;5042798;27;119366;-71
2022/08/23 07:41:20;;;;;;;17.23;5.13;;;24.10;1.00;;;25.91;52.48;99499.09;5040782;27;119323;-70
2022/08/23 07:43:50;;;;;;;21.20;5.55;;;24.10;1.00;;;25.57;53.28;99499.91;5042378;27;129962;-71
2022/08/23 07:46:19;;;;;;;15.65;5.07;;;23.80;1.00;;;25.74;52.80;99489.78;5039495;27;129969;-71
2022/08/23 07:48:49;;;;;;;17.83;5.50;;;24.10;1.00;;;25.65;52.53;99503.38;5042725;27;119440;-72
2022/08/23 07:51:22;;;;;;;12.25;5.38;;;24.10;1.00;;;25.82;51.99;99505.16;4988679;28;118366;-70
2022/08/23 07:53:53;;;;;;;13.77;4.65;;;24.10;1.00;;;25.64;52.29;99507.34;5017384;28;129751;-70
2022/08/23 07:56:23;;;;;;;16.80;5.05;;;24.10;1.00;;;25.29;52.69;99509.28;5005111;28;129151;-72
2022/08/23 07:59:06;;;;;;;17.38;5.13;;;23.90;1.00;;;24.85;54.38;99502.50;5020168;28;119505;-69
2022/08/23 08:01:45;;;;;;;14.85;4.53;;;23.50;1.00;;;24.87;54.76;99508.44;5019973;28;119583;-71
2022/08/23 08:04:15;;;;;;;14.40;4.97;;;23.40;1.00;;;25.10;53.73;99514.22;5001912;28;129914;-72
2022/08/23 08:06:50;;;;;;;12.63;4.75;;;23.60;1.00;;;25.59;52.90;99522.50;5002284;28;129474;-70
2022/08/23 08:09:22;;;;;;;14.90;4.87;;;24.10;1.00;;;25.81;52.49;99506.34;5022076;28;119492;-70
2022/08/23 08:11:51;;;;;;;14.35;4.90;;;24.40;1.00;;;26.09;51.42;99503.69;5002361;28;119895;-70
2022/08/23 08:14:24;;;;;;;17.30;4.97;;;24.60;1.00;;;26.40;50.60;99507.22;5001734;28;129747;-72
2022/08/23 08:16:59;;;;;;;11.77;5.03;;;24.80;1.00;;;26.42;49.72;99507.59;5004629;28;129723;-69
2022/08/23 08:19:50;;;;;;;16.25;5.07;;;24.60;1.00;;;26.45;50.33;99503.19;5000900;28;121883;-72
2022/08/23 08:22:39;;;;;;;11.00;4.32;;;24.70;1.00;;;26.63;50.93;99514.03;5020505;28;122029;-70
2022/08/23 08:25:29;;;;;;;15.32;4.57;;;24.90;1.00;;;27.04;49.11;99524.94;5019526;28;130221;-72
2022/08/23 08:27:59;;;;;;;12.98;5.07;;;25.20;1.00;;;27.47;49.10;99514.28;5021504;28;129630;-70
2022/08/23 08:30:27;;;;;;;20.10;5.30;;;25.50;1.00;;;27.73;48.22;99520.97;5001726;28;119428;-71
2022/08/23 08:32:56;;;;;;;17.23;5.63;;;25.80;1.00;;;27.29;49.15;99514.59;5004914;28;119516;-71
2022/08/23 08:35:25;;;;;;;14.32;5.10;;;25.40;1.00;;;27.44;49.38;99510.34;5017855;28;130121;-69
2022/08/23 08:37:55;;;;;;;12.52;4.70;;;25.50;1.00;;;27.86;48.32;99513.53;5002067;27;128449;-72
2022/08/23 08:40:39;;;;;;;14.07;4.60;;;25.90;1.00;;;27.82;47.92;99521.19;4995663;28;119066;-72
2022/08/23 08:43:24;;;;;;;12.65;4.13;;;25.80;1.00;;;28.01;47.91;99519.63;4997345;28;119405;-73
2022/08/23 08:46:06;;;;;;;18.53;4.87;;;26.00;1.00;;;28.09;47.69;99511.88;4983183;28;129929;-71
2022/08/23 08:48:43;;;;;;;10.95;4.47;;;26.10;1.00;;;28.44;47.47;99504.75;4997415;28;129776;-70
2022/08/23 08:51:29;;;;;;;10.77;4.55;;;26.40;1.00;;;28.39;45.81;99496.09;4999843;28;119504;-71
2022/08/23 08:53:59;;;;;;;16.85;4.60;;;26.60;1.00;;;27.97;45.88;99497.38;4982925;28;119328;-72
2022/08/23 08:56:37;;;;;;;12.52;3.55;;;26.50;1.00;;;28.39;45.28;99507.25;4996740;28;130032;-73
2022/08/23 08:59:23;;;;;;;16.80;4.00;;;26.70;1.00;;;28.42;42.95;99506.38;4980776;28;129061;-69
2022/08/23 09:01:52;;;;;;;14.43;3.63;;;26.80;1.00;;;28.04;43.68;99507.59;5001782;28;119288;-70
2022/08/23 09:04:30;;;;;;;12.48;3.72;;;26.50;1.00;;;28.57;43.65;99504.84;4984976;28;119498;-73
2022/08/23 09:07:10;;;;;;;10.30;3.47;;;26.80;1.00;;;28.80;42.63;99500.34;5004021;28;129522;-72
2022/08/23 09:10:14;;;;;;;9.57;3.80;;;27.10;1.00;;;29.14;43.18;99501.88;4987332;28;128992;-70
2022/08/23 09:13:10;;;;;;;15.13;3.75;;;27.30;1.00;;;29.49;41.36;99499.41;4983470;28;122441;-72
2022/08/23 09:15:50;;;;;;;8.60;3.78;;;27.60;1.00;;;29.13;40.50;99489.16;5004421;28;122242;-70
2022/08/23 09:18:18;;;;;;;11.38;3.67;;;27.40;1.00;;;29.08;40.62;99495.25;5001927;28;130574;-72
2022/08/23 09:20:51;;;;;;;10.30;3.22;;;27.50;1.00;;;29.09;42.03;99494.03;4987737;28;129139;-70
2022/08/23 09:23:24;;;;;;;11.30;3.33;;;27.60;1.00;;;29.35;40.68;99506.94;4984600;28;119504;-74
2022/08/23 09:25:59;;;;;;;;;;;27.70;1.00;;;29.43;39.80;99490.75;5004693;28;118997;-70
2022/08/23 09:28:36;;;;;;;9.45;2.97;;;27.70;1.00;;;29.60;40.10;99490.72;5001064;28;130334;-69
2022/08/23 09:31:07;;;;;;;16.10;3.72;;;27.80;1.00;;;29.63;39.96;99499.00;4997356;28;128620;-72
2022/08/23 09:33:41;;;;;;;8.95;3.22;;;27.70;1.00;;;29.53;39.96;99500.06;5012762;28;119570;-69
2022/08/23 09:36:21;;;;;;;12.02;3.50;;;27.60;1.00;;;29.32;39.85;99498.66;5007292;28;119288;-72
2022/08/23 09:38:56;;;;;;;15.93;3.20;;;27.50;1.00;;;29.64;39.43;99500.56;5002259;28;129804;-70
2022/08/23 09:41:32;;;;;;;13.52;3.13;;;27.80;1.00;;;29.80;39.35;99488.56;4986937;28;130487;-73
2022/08/23 09:44:07;;;;;;;14.82;3.53;;;28.20;1.00;;;30.36;38.98;99490.09;4986515;28;119685;-72
2022/08/23 09:46:40;;;;;;;12.05;3.40;;;28.60;1.00;;;30.73;38.29;99487.75;5020459;28;120523;-71
2022/08/23 09:49:25;;;;;;;13.10;3.25;;;29.00;1.00;;;30.67;36.77;99485.94;4985788;28;129984;-72
2022/08/23 09:52:02;;;;;;;13.57;3.63;;;28.80;1.00;;;30.11;37.58;99486.03;5019553;28;129924;-71
2022/08/23 09:54:34;;;;;;;10.77;3.42;;;28.30;1.00;;;29.38;39.30;99494.09;5020751;28;120293;-70
2022/08/23 09:57:09;;;;;;;16.45;3.78;;;27.80;1.00;;;29.27;39.94;99488.03;5024239;28;120143;-70
2022/08/23 09:59:44;;;;;;;11.45;3.53;;;27.60;1.00;;;29.19;39.91;99492.97;5021609;28;130956;-70
2022/08/23 10:02:28;;;;;;;11.43;3.13;;;27.60;1.00;;;28.75;40.57;99481.31;5006586;28;129543;-74
2022/08/23 10:05:02;;;;;;;11.43;3.53;;;27.20;1.00;;;28.83;39.54;99479.94;4989208;28;120961;-70
2022/08/23 10:07:40;;;;;;;12.38;3.65;;;27.40;1.00;;;29.09;39.83;99482.84;5020312;28;121945;-71
2022/08/23 10:10:27;;;;;;;13.13;3.20;;;27.60;1.00;;;29.25;38.07;99485.66;5006592;28;130179;-69
2022/08/23 10:13:01;;;;;;;13.75;3.40;;;27.70;1.00;;;29.72;37.92;99485.16;5002115;28;130083;-70
2022/08/23 10:15:49;;;;;;;15.38;3.15;;;28.00;1.00;;;30.75;37.72;99479.66;5020274;28;119027;-69
2022/08/23 10:18:33;;;;;;;7.38;3.08;;;28.70;1.00;;;30.97;36.21;99481.78;5013281;27;119369;-70
2022/08/23 10:21:08;;;;;;;13.77;3.90;;;28.90;1.00;;;30.74;36.95;99478.09;5002867;28;129850;-70
2022/08/23 10:23:50;;;;;;;9.75;3.30;;;28.80;1.00;;;30.51;36.54;99486.88;5002668;28;131191;-70
2022/08/23 10:26:33;;;;;;;11.88;3.50;;;28.50;1.00;;;30.60;36.93;99490.53;5021429;28;119718;-71
2022/08/23 10:32:28;;;;;;;14.02;3.50;;;28.70;1.00;;;30.34;35.60;99489.75;4944372;28;129428;-71
2022/08/23 10:35:21;;;;;;;;;;;28.70;1.00;;;30.42;36.26;99485.53;4945512;28;130121;-71
2022/08/23 10:38:16;;;;;;;13.25;3.92;;;28.70;1.00;;;30.36;36.79;99498.50;4942846;28;119633;-71
2022/08/23 10:40:58;;;;;;;14.48;3.78;;;28.60;1.00;;;30.69;36.50;99498.28;4943127;28;119385;-72
2022/08/23 10:43:39;;;;;;;13.30;3.75;;;28.80;1.00;;;30.10;36.55;99492.84;4961534;28;130260;-71
2022/08/23 10:46:09;;;;;;;13.60;3.53;;;28.50;1.00;;;30.35;36.81;99491.31;4942476;28;129462;-72
2022/08/23 10:48:50;;;;;;;13.05;3.45;;;28.80;1.00;;;30.19;36.93;99486.59;4945648;28;118574;-69